Main page
METAR-TAF:

METAR-TAF

Airports :

Bahrain International Airport

Bahrain, Bahrain

latitude: 26-16N, longitude: 050-39E, elevation: 2 m

Current weather observation

The report was made 15 minutes ago, at 06:30 UTC
Wind 16 kt from the Northwest
Temperature 37°C
Humidity 48%
Pressure 998 hPa
Visibility 10 km or more
no clouds below 1500 m and no cumulonimbus

METAR: OBBI 180630Z 31016KT CAVOK 37/24 Q0998 NOSIG

Time: 09:45 (06:45 UTC)

Forecast

The report was made 1 hour and 45 minutes ago, at 05:00 UTC
Forecast valid from 18 at 06 UTC to 19 at 12 UTC
Wind 17 kt from the North/Northwest
Visibility 10 km or more
no clouds below 1500 m and no cumulonimbus
Becoming
from 18 at 16 UTC to 18 at 18 UTC
Wind 10 kt from the West
Becoming
from 19 at 04 UTC to 19 at 06 UTC
Wind 16 kt from the North/Northwest

TAF: OBBI 180500Z 1806/1912 34017KT CAVOK BECMG 1816/1818 28010KT BECMG 1904/1906 34016KT

Weather observations and forecasts of more than 4000 airports (METAR and TAF reports).

The available stations are represented by yellow and red dots on the map.

Hover mouse over dot to see the name of the station.

Then click to see weather observations and forecasts.

To change the map : click on the green buttons with a black cross to zoom in, on the green button with a dash to zoom out, or on the green arrows for adjacent maps.


METAR-TAF: